Time;durP1;ratioP1;P1;durP2;ratioP2;P2;SDS_P1;SDS_P2;PMS_P1;PMS_P2;Temp;Humidity;BMP_temperature;BMP_pressure;BME280_temperature;BME280_humidity;BME280_pressure;Samples;Min_cycle;Max_cycle;Signal;HPM_P1;HPM_P2
2024/01/27 00:09:20;;;;;;;;;;;4.30;99.90;;;;;;6735920;88;20128;-77
2024/01/27 00:19:21;;;;;;;;;;;4.20;99.90;;;;;;6739245;87;20065;-77
2024/01/27 00:29:21;;;;;;;;;;;4.30;99.90;;;;;;6735800;88;20072;-78
2024/01/27 00:39:22;;;;;;;;;;;4.30;99.90;;;;;;6736229;88;20179;-77
2024/01/27 00:49:23;;;;;;;;;;;4.20;99.90;;;;;;6736259;88;20091;-78
2024/01/27 00:59:23;;;;;;;;;;;4.10;99.90;;;;;;6745257;88;20152;-76
2024/01/27 01:09:23;;;;;;;;;;;4.00;99.90;;;;;;6737175;88;20071;-76
2024/01/27 01:19:24;;;;;;;;;;;3.80;99.90;;;;;;6718065;88;20049;-78
2024/01/27 01:29:24;;;;;;;;;;;3.90;99.90;;;;;;6739609;88;20070;-77
2024/01/27 01:39:25;;;;;;;;;;;3.70;99.90;;;;;;6739311;88;20230;-78
2024/01/27 01:49:26;;;;;;;;;;;3.60;99.90;;;;;;6759639;77;20071;-76
2024/01/27 01:59:26;;;;;;;;;;;3.70;99.90;;;;;;6753562;87;20083;-76
2024/01/27 02:09:27;;;;;;;;;;;3.60;99.90;;;;;;6735297;87;20081;-76
2024/01/27 02:19:27;;;;;;;;;;;3.60;99.90;;;;;;6747488;87;20183;-76
2024/01/27 02:29:28;;;;;;;;;;;3.60;99.90;;;;;;6749094;87;20069;-76
2024/01/27 02:39:28;;;;;;;;;;;3.60;99.90;;;;;;6752923;87;20122;-76
2024/01/27 02:49:28;;;;;;;;;;;3.60;99.90;;;;;;6750662;87;20154;-76
2024/01/27 02:59:29;;;;;;;;;;;3.50;99.90;;;;;;6747364;87;20101;-76
2024/01/27 03:09:29;;;;;;;;;;;3.40;99.90;;;;;;6743295;87;20061;-76
2024/01/27 03:19:30;;;;;;;;;;;3.40;99.90;;;;;;6751192;87;20092;-75
2024/01/27 03:29:31;;;;;;;;;;;3.20;99.90;;;;;;6754805;87;20161;-76
2024/01/27 03:39:31;;;;;;;;;;;3.20;99.90;;;;;;6752994;87;20057;-76
2024/01/27 03:49:31;;;;;;;;;;;3.20;99.90;;;;;;6731654;87;20128;-76
2024/01/27 03:59:32;;;;;;;;;;;2.80;99.90;;;;;;6743732;87;20075;-76
2024/01/27 04:09:32;;;;;;;;;;;2.90;99.90;;;;;;6752776;87;20140;-76
2024/01/27 04:19:33;;;;;;;;;;;2.80;99.90;;;;;;6740287;87;20096;-76
2024/01/27 04:29:35;;;;;;;;;;;2.50;99.90;;;;;;6749666;87;20074;-76
2024/01/27 04:39:37;;;;;;;;;;;2.10;99.90;;;;;;6752172;87;20065;-76
2024/01/27 04:49:37;;;;;;;;;;;1.90;99.90;;;;;;6747755;87;20074;-76
2024/01/27 04:59:38;;;;;;;;;;;1.70;99.90;;;;;;6749133;87;20095;-76
2024/01/27 05:09:38;;;;;;;;;;;1.70;99.90;;;;;;6750351;87;20082;-76
2024/01/27 05:19:39;;;;;;;;;;;1.50;99.90;;;;;;6748300;87;20207;-76
2024/01/27 05:29:39;;;;;;;;;;;1.40;99.90;;;;;;6746742;88;20102;-76
2024/01/27 05:39:39;;;;;;;;;;;1.30;99.90;;;;;;6746760;88;20061;-76
2024/01/27 05:49:40;;;;;;;;;;;1.20;99.90;;;;;;6751812;87;20066;-76
2024/01/27 05:59:41;;;;;;;;;;;1.10;99.90;;;;;;6755052;87;20171;-76
2024/01/27 06:09:41;;;;;;;;;;;1.30;99.90;;;;;;6752453;87;20176;-76
2024/01/27 06:19:42;;;;;;;;;;;1.30;99.90;;;;;;6740614;87;20712;-76
2024/01/27 06:29:43;;;;;;;;;;;1.10;99.90;;;;;;6752712;87;20081;-76
2024/01/27 06:39:44;;;;;;;;;;;1.10;99.90;;;;;;6750788;87;20115;-76
2024/01/27 06:49:44;;;;;;;;;;;1.00;99.90;;;;;;6754031;87;20079;-76
2024/01/27 06:59:45;;;;;;;;;;;1.20;99.90;;;;;;6752342;87;20069;-76
2024/01/27 07:09:46;;;;;;;;;;;1.20;99.90;;;;;;6748367;87;20056;-76
2024/01/27 07:19:46;;;;;;;;;;;1.20;99.90;;;;;;6748291;88;20050;-77
2024/01/27 07:29:47;;;;;;;;;;;1.10;99.90;;;;;;6752629;87;20587;-77
2024/01/27 07:39:48;;;;;;;;;;;1.30;99.90;;;;;;6747469;88;20045;-75
2024/01/27 07:49:49;;;;;;;;;;;1.20;99.90;;;;;;6752945;77;20095;-75
2024/01/27 07:59:49;;;;;;;;;;;1.30;99.90;;;;;;6728175;88;20073;-74
2024/01/27 08:09:50;;;;;;;;;;;1.30;99.90;;;;;;6717827;88;20058;-75
2024/01/27 08:19:51;;;;;;;;;;;1.60;99.90;;;;;;6716742;88;20080;-76
2024/01/27 08:29:51;;;;;;;;;;;1.90;99.90;;;;;;6717607;88;20058;-76
2024/01/27 08:39:52;;;;;;;;;;;2.40;99.90;;;;;;6715937;88;20216;-74
2024/01/27 08:49:52;;;;;;;;;;;2.80;99.90;;;;;;6711931;88;20071;-74
2024/01/27 08:59:53;;;;;;;;;;;3.40;99.90;;;;;;6711567;88;20109;-75
2024/01/27 09:09:53;;;;;;;;;;;3.70;99.90;;;;;;6712521;88;20140;-75
2024/01/27 09:19:53;;;;;;;;;;;3.90;99.90;;;;;;6714940;88;20635;-76
2024/01/27 09:29:54;;;;;;;;;;;4.10;99.90;;;;;;6717076;88;20063;-75
2024/01/27 09:39:54;;;;;;;;;;;4.50;99.90;;;;;;6721668;88;20185;-75
2024/01/27 09:49:55;;;;;;;;;;;4.90;99.90;;;;;;6718684;88;20063;-75
2024/01/27 09:59:56;;;;;;;;;;;5.10;99.90;;;;;;6716327;88;20495;-73
2024/01/27 10:09:57;;;;;;;;;;;5.60;99.90;;;;;;6717058;88;20042;-74
2024/01/27 10:20:04;;;;;;;;;;;6.40;99.90;;;;;;6719950;88;20085;-74
2024/01/27 10:30:06;;;;;;;;;;;6.30;99.90;;;;;;6732995;88;20099;-75
2024/01/27 10:40:10;;;;;;;;;;;7.00;99.90;;;;;;6718827;88;20140;-75
2024/01/27 10:50:11;;;;;;;;;;;7.40;99.90;;;;;;6713915;88;20558;-75
2024/01/27 11:00:12;;;;;;;;;;;7.50;99.90;;;;;;6713889;88;20203;-75
2024/01/27 11:10:13;;;;;;;;;;;8.10;99.90;;;;;;6722621;88;20084;-77
2024/01/27 11:20:16;;;;;;;;;;;8.10;99.90;;;;;;6717156;88;20586;-75
2024/01/27 11:30:30;;;;;;;;;;;7.90;99.90;;;;;;6725481;88;20191;-74
2024/01/27 11:40:30;;;;;;;;;;;8.10;99.90;;;;;;6717182;88;20051;-77
2024/01/27 11:50:31;;;;;;;;;;;8.40;99.90;;;;;;6721370;88;20091;-75
2024/01/27 12:00:31;;;;;;;;;;;9.70;99.90;;;;;;6732585;88;20078;-78
2024/01/27 12:10:32;;;;;;;;;;;10.50;99.90;;;;;;6723615;88;20552;-76
2024/01/27 12:20:32;;;;;;;;;;;11.40;99.90;;;;;;6714319;88;20235;-77
2024/01/27 12:30:33;;;;;;;;;;;11.40;99.90;;;;;;6722635;88;20059;-75
2024/01/27 12:40:34;;;;;;;;;;;12.00;99.90;;;;;;6715051;88;20988;-77
2024/01/27 12:50:34;;;;;;;;;;;12.50;99.90;;;;;;6716199;88;20113;-76
2024/01/27 13:00:34;;;;;;;;;;;12.70;99.90;;;;;;6724519;88;20046;-75
2024/01/27 13:10:35;;;;;;;;;;;13.40;99.90;;;;;;6740161;88;20046;-79
2024/01/27 13:20:36;;;;;;;;;;;14.70;98.90;;;;;;6735605;88;20058;-78
2024/01/27 13:30:37;;;;;;;;;;;15.70;95.30;;;;;;6735880;88;20110;-77
2024/01/27 13:40:37;;;;;;;;;;;14.10;98.50;;;;;;6725443;88;20098;-77
2024/01/27 13:50:38;;;;;;;;;;;16.40;95.90;;;;;;6739612;77;20091;-78
2024/01/27 14:00:38;;;;;;;;;;;14.70;96.20;;;;;;6728566;88;20130;-76
2024/01/27 14:10:39;;;;;;;;;;;15.20;95.80;;;;;;6728998;88;20156;-75
2024/01/27 14:20:40;;;;;;;;;;;14.60;95.90;;;;;;6726553;88;20170;-76
2024/01/27 14:30:40;;;;;;;;;;;13.60;96.60;;;;;;6729228;88;20051;-77
2024/01/27 14:40:41;;;;;;;;;;;14.00;95.70;;;;;;6727459;88;20071;-75
2024/01/27 14:50:41;;;;;;;;;;;13.40;96.50;;;;;;6724640;88;20059;-75
2024/01/27 15:00:42;;;;;;;;;;;12.80;96.50;;;;;;6723879;88;20069;-75
2024/01/27 15:10:43;;;;;;;;;;;12.30;98.20;;;;;;6720254;88;20144;-74
2024/01/27 15:20:43;;;;;;;;;;;11.20;99.70;;;;;;6728189;88;20231;-78
2024/01/27 15:30:47;;;;;;;;;;;10.50;99.90;;;;;;6725400;88;20075;-75
2024/01/27 15:40:48;;;;;;;;;;;9.70;99.90;;;;;;6725034;88;20046;-75
2024/01/27 15:50:48;;;;;;;;;;;9.30;99.90;;;;;;6730257;88;20558;-75
2024/01/27 16:00:49;;;;;;;;;;;9.00;99.90;;;;;;6725887;88;20071;-75
2024/01/27 16:10:52;;;;;;;;;;;8.50;99.90;;;;;;6722447;88;20185;-75
2024/01/27 16:20:52;;;;;;;;;;;8.00;99.90;;;;;;6723832;88;20219;-73
2024/01/27 16:30:54;;;;;;;;;;;7.70;99.90;;;;;;6723932;88;20119;-76
2024/01/27 16:40:54;;;;;;;;;;;7.20;99.90;;;;;;6724298;88;20096;-77
2024/01/27 16:50:56;;;;;;;;;;;7.00;99.90;;;;;;6720050;88;20051;-75
2024/01/27 17:00:56;;;;;;;;;;;6.50;99.90;;;;;;6721793;88;20085;-75
2024/01/27 17:10:56;;;;;;;;;;;6.20;99.90;;;;;;6720352;88;20067;-76
2024/01/27 17:20:57;;;;;;;;;;;6.20;99.90;;;;;;6720494;88;20063;-76
2024/01/27 17:30:58;;;;;;;;;;;5.90;99.90;;;;;;6721209;88;20066;-74
2024/01/27 17:40:58;;;;;;;;;;;5.70;99.90;;;;;;6718556;88;20467;-76
2024/01/27 17:50:59;;;;;;;;;;;5.60;99.90;;;;;;6722598;88;20148;-74
2024/01/27 18:00:59;;;;;;;;;;;5.50;99.90;;;;;;6720342;88;20555;-74
2024/01/27 18:11:00;;;;;;;;;;;5.30;99.90;;;;;;6721166;88;20071;-75
2024/01/27 18:21:01;;;;;;;;;;;5.20;99.90;;;;;;6718351;88;20079;-73
2024/01/27 18:31:01;;;;;;;;;;;5.10;99.90;;;;;;6723134;88;20075;-73
2024/01/27 18:41:02;;;;;;;;;;;4.90;99.90;;;;;;6720618;88;20131;-76
2024/01/27 18:51:05;;;;;;;;;;;4.90;99.90;;;;;;6723162;88;20051;-76
2024/01/27 19:01:06;;;;;;;;;;;4.80;99.90;;;;;;6721973;88;20061;-75
2024/01/27 19:11:06;;;;;;;;;;;4.80;99.90;;;;;;6721498;88;20092;-76
2024/01/27 19:21:07;;;;;;;;;;;4.60;99.90;;;;;;6718877;88;20184;-76
2024/01/27 19:31:07;;;;;;;;;;;4.40;99.90;;;;;;6720692;88;20076;-76
2024/01/27 19:41:11;;;;;;;;;;;4.10;99.90;;;;;;6717925;88;20550;-75
2024/01/27 19:51:32;;;;;;;;;;;4.10;99.90;;;;;;6747734;77;20054;-78
2024/01/27 20:01:33;;;;;;;;;;;4.00;99.90;;;;;;6728859;88;20447;-79
2024/01/27 20:11:33;;;;;;;;;;;3.70;99.90;;;;;;6724125;88;20110;-79
2024/01/27 20:21:34;;;;;;;;;;;3.60;99.90;;;;;;6722926;88;20046;-78
2024/01/27 20:31:34;;;;;;;;;;;3.40;99.90;;;;;;6722865;88;20038;-78
2024/01/27 20:41:35;;;;;;;;;;;3.00;99.90;;;;;;6722805;88;20493;-78
2024/01/27 20:51:36;;;;;;;;;;;2.80;99.90;;;;;;6722992;88;20159;-77
2024/01/27 21:01:39;;;;;;;;;;;2.90;99.90;;;;;;6717303;88;20103;-78
2024/01/27 21:11:40;;;;;;;;;;;3.00;99.90;;;;;;6711198;88;20086;-78
2024/01/27 21:21:40;;;;;;;;;;;2.90;99.90;;;;;;6715611;88;20511;-78
2024/01/27 21:31:40;;;;;;;;;;;2.70;99.90;;;;;;6709381;88;20105;-77
2024/01/27 21:41:41;;;;;;;;;;;2.50;99.90;;;;;;6714327;88;20564;-78
2024/01/27 21:51:50;;;;;;;;;;;2.40;99.90;;;;;;6719515;88;20212;-78
2024/01/27 22:01:51;;;;;;;;;;;2.40;99.90;;;;;;6732569;88;20085;-78
2024/01/27 22:11:51;;;;;;;;;;;2.40;99.90;;;;;;6719412;88;20058;-77
2024/01/27 22:21:53;;;;;;;;;;;2.20;99.90;;;;;;6711756;88;20071;-78
2024/01/27 22:31:54;;;;;;;;;;;2.30;99.90;;;;;;6721654;88;20055;-77
2024/01/27 22:41:54;;;;;;;;;;;2.50;99.90;;;;;;6719654;88;20140;-76
2024/01/27 22:51:55;;;;;;;;;;;2.60;99.90;;;;;;6714663;88;20113;-77
2024/01/27 23:01:55;;;;;;;;;;;2.60;99.90;;;;;;6717108;88;20564;-78
2024/01/27 23:11:55;;;;;;;;;;;2.50;99.90;;;;;;6715938;88;20055;-77
2024/01/27 23:21:56;;;;;;;;;;;2.60;99.90;;;;;;6716273;88;20063;-78
2024/01/27 23:31:56;;;;;;;;;;;2.60;99.90;;;;;;6713264;88;20074;-78
2024/01/27 23:41:57;;;;;;;;;;;2.60;99.90;;;;;;6712117;88;20102;-78
2024/01/27 23:51:57;;;;;;;;;;;2.50;99.90;;;;;;6712072;88;20100;-78
